Time;durP1;ratioP1;P1;durP2;ratioP2;P2;SDS_P1;SDS_P2;PMS_P1;PMS_P2;Temp;Humidity;BMP_temperature;BMP_pressure;BME280_temperature;BME280_humidity;BME280_pressure;Samples;Min_cycle;Max_cycle;Signal;HPM_P1;HPM_P2
2021/11/29 00:00:53;;;;;;;18.93;11.80;;;2.70;94.80;;;;;;5011588;28;20798;-76
2021/11/29 00:03:27;;;;;;;19.50;10.80;;;2.70;94.90;;;;;;5012091;28;20158;-75
2021/11/29 00:05:53;;;;;;;23.03;9.70;;;2.60;95.00;;;;;;5011927;28;20754;-76
2021/11/29 00:08:18;;;;;;;16.57;9.60;;;2.60;95.10;;;;;;5012431;28;20414;-76
2021/11/29 00:10:44;;;;;;;25.47;13.37;;;2.50;95.20;;;;;;4994547;28;20194;-76
2021/11/29 00:13:10;;;;;;;19.03;9.80;;;2.40;95.20;;;;;;5012477;28;20540;-76
2021/11/29 00:15:36;;;;;;;14.13;9.93;;;2.40;95.40;;;;;;5012636;28;20213;-75
2021/11/29 00:18:02;;;;;;;18.30;10.20;;;2.30;95.50;;;;;;5011529;28;20167;-75
2021/11/29 00:20:28;;;;;;;17.40;10.97;;;2.30;95.70;;;;;;5011825;28;20183;-74
2021/11/29 00:22:54;;;;;;;19.50;11.83;;;2.30;95.70;;;;;;5010504;28;20795;-75
2021/11/29 00:25:20;;;;;;;19.87;10.30;;;2.20;95.70;;;;;;5011496;28;20410;-75
2021/11/29 00:27:46;;;;;;;55.53;24.40;;;2.20;95.80;;;;;;5011513;28;20175;-76
2021/11/29 00:30:14;;;;;;;18.27;10.77;;;2.20;95.80;;;;;;5010359;28;20406;-75
2021/11/29 00:32:40;;;;;;;16.83;11.10;;;2.10;95.80;;;;;;5013847;28;20478;-75
2021/11/29 00:35:07;;;;;;;21.00;10.93;;;2.10;95.90;;;;;;5017673;28;20422;-74
2021/11/29 00:37:33;;;;;;;16.30;11.23;;;2.00;95.90;;;;;;5011875;28;20888;-75
2021/11/29 00:39:59;;;;;;;15.67;10.37;;;2.00;96.00;;;;;;5011104;28;20410;-77
2021/11/29 00:42:25;;;;;;;26.93;12.60;;;2.00;96.20;;;;;;4994301;28;20452;-76
2021/11/29 00:44:51;;;;;;;17.47;10.97;;;2.00;96.20;;;;;;5011733;28;20178;-75
2021/11/29 00:47:16;;;;;;;22.13;11.80;;;2.00;96.20;;;;;;5011802;28;20183;-76
2021/11/29 00:49:42;;;;;;;18.80;11.43;;;2.00;96.20;;;;;;5011615;28;20186;-75
2021/11/29 00:52:08;;;;;;;22.57;12.57;;;2.00;96.30;;;;;;5010027;28;20182;-76
2021/11/29 00:54:34;;;;;;;24.90;13.43;;;2.00;96.30;;;;;;4993972;28;20425;-75
2021/11/29 01:04:34;;;;;;;19.17;11.80;;;2.00;96.10;;;;;;5010400;28;20485;-76
2021/11/29 01:10:47;;;;;;;23.77;12.93;;;1.90;96.20;;;;;;5011039;28;20166;-75
2021/11/29 01:13:13;;;;;;;21.60;12.60;;;1.90;96.20;;;;;;4997147;28;20407;-74
2021/11/29 01:15:39;;;;;;;20.07;12.43;;;1.90;96.20;;;;;;5015201;28;20580;-75
2021/11/29 01:18:10;;;;;;;20.37;13.07;;;2.00;96.20;;;;;;5014794;28;20167;-75
2021/11/29 01:20:37;;;;;;;24.77;11.90;;;2.00;96.10;;;;;;5014983;28;20174;-75
2021/11/29 01:23:03;;;;;;;19.60;12.80;;;1.90;96.00;;;;;;5013441;28;20461;-74
2021/11/29 01:25:29;;;;;;;19.87;12.27;;;1.90;96.00;;;;;;5014560;28;20409;-75
2021/11/29 01:27:54;;;;;;;21.17;11.73;;;1.90;96.10;;;;;;5014873;28;20426;-75
2021/11/29 01:30:20;;;;;;;19.70;11.00;;;1.90;95.90;;;;;;5038855;23;20253;-73
2021/11/29 01:32:46;;;;;;;17.90;10.93;;;1.90;95.90;;;;;;5013211;28;20222;-73
2021/11/29 01:35:12;;;;;;;21.50;12.50;;;1.90;95.90;;;;;;5015099;28;20197;-73
2021/11/29 01:37:37;;;;;;;15.90;10.90;;;1.90;95.90;;;;;;5013454;28;20195;-73
2021/11/29 01:40:08;;;;;;;16.80;11.10;;;1.90;95.80;;;;;;5012953;28;20245;-72
2021/11/29 01:42:35;;;;;;;17.60;10.73;;;1.90;95.70;;;;;;5012749;28;20199;-72
2021/11/29 01:45:02;;;;;;;17.60;10.60;;;2.00;95.70;;;;;;5013226;28;20430;-73
2021/11/29 01:47:27;;;;;;;23.83;11.40;;;2.00;95.70;;;;;;5011728;28;20856;-73
2021/11/29 01:49:53;;;;;;;13.90;9.43;;;2.00;95.60;;;;;;4995483;28;20458;-73
2021/11/29 01:52:19;;;;;;;22.00;12.80;;;2.00;95.50;;;;;;5011025;28;20183;-73
2021/11/29 01:54:45;;;;;;;19.83;10.40;;;2.10;95.50;;;;;;5012853;28;20476;-73
2021/11/29 01:57:11;;;;;;;18.93;10.00;;;2.10;95.30;;;;;;5012907;28;20421;-72
2021/11/29 01:59:37;;;;;;;23.20;12.00;;;2.10;95.20;;;;;;5012426;28;20433;-72
2021/11/29 02:02:04;;;;;;;17.47;10.80;;;2.10;95.10;;;;;;5012541;28;20225;-71
2021/11/29 02:04:30;;;;;;;20.10;10.20;;;2.00;95.00;;;;;;5012668;28;20784;-72
2021/11/29 02:06:56;;;;;;;16.00;10.43;;;2.00;95.10;;;;;;5012762;28;20419;-73
2021/11/29 02:09:22;;;;;;;11.17;7.50;;;1.90;95.00;;;;;;5012649;28;20669;-72
2021/11/29 02:11:48;;;;;;;12.47;9.00;;;1.80;95.00;;;;;;5012369;28;20175;-72
2021/11/29 02:14:13;;;;;;;12.13;8.97;;;1.80;95.10;;;;;;5012757;28;20168;-72
2021/11/29 02:16:39;;;;;;;14.60;9.23;;;1.80;95.10;;;;;;5012704;28;20166;-72
2021/11/29 02:19:06;;;;;;;14.50;9.90;;;1.70;95.10;;;;;;5012528;28;20645;-72
2021/11/29 02:21:33;;;;;;;16.47;9.53;;;1.70;95.20;;;;;;5012125;28;20207;-73
2021/11/29 02:24:03;;;;;;;18.30;9.73;;;1.70;95.20;;;;;;5012365;28;20440;-72
2021/11/29 02:26:32;;;;;;;14.67;8.67;;;1.70;95.20;;;;;;5013452;28;20908;-72
2021/11/29 02:29:02;;;;;;;14.40;9.63;;;1.70;95.20;;;;;;5012618;28;20529;-72
2021/11/29 02:31:34;;;;;;;19.70;10.63;;;1.60;95.10;;;;;;5012614;28;20449;-72
2021/11/29 02:34:07;;;;;;;14.73;8.63;;;1.60;95.10;;;;;;5012508;28;20941;-72
2021/11/29 02:36:33;;;;;;;18.60;10.30;;;1.60;95.00;;;;;;5012210;28;20413;-72
2021/11/29 02:38:59;;;;;;;14.97;8.90;;;1.50;95.00;;;;;;5012120;28;20441;-72
2021/11/29 02:41:24;;;;;;;15.47;9.20;;;1.50;95.10;;;;;;5010952;28;20294;-72
2021/11/29 02:43:50;;;;;;;16.40;9.57;;;1.50;95.00;;;;;;5012101;28;20171;-72
2021/11/29 02:46:16;;;;;;;13.87;8.70;;;1.40;95.10;;;;;;5010747;28;20233;-72
2021/11/29 02:48:47;;;;;;;17.50;9.13;;;1.40;95.30;;;;;;5010725;28;20637;-73
2021/11/29 02:51:30;;;;;;;14.20;8.80;;;1.40;95.40;;;;;;5011882;28;20202;-72
2021/11/29 02:54:05;;;;;;;19.60;8.80;;;1.40;95.50;;;;;;5011945;28;20886;-72
2021/11/29 02:56:31;;;;;;;15.30;9.10;;;1.40;95.50;;;;;;5010793;28;20930;-72
2021/11/29 02:58:57;;;;;;;14.00;8.23;;;1.40;95.40;;;;;;5011936;28;20418;-72
2021/11/29 03:01:24;;;;;;;13.87;8.17;;;1.30;95.20;;;;;;5011223;28;20946;-72
2021/11/29 03:03:52;;;;;;;15.47;7.73;;;1.30;95.30;;;;;;5011531;28;20455;-72
2021/11/29 03:06:19;;;;;;;19.67;8.60;;;1.30;95.40;;;;;;5011674;28;20422;-73
2021/11/29 03:08:45;;;;;;;22.03;8.73;;;1.30;95.40;;;;;;5011713;28;20848;-73
2021/11/29 03:11:12;;;;;;;13.30;8.00;;;1.20;95.40;;;;;;5011682;28;20438;-73
2021/11/29 03:13:39;;;;;;;17.33;8.60;;;1.30;95.50;;;;;;5011756;28;20892;-73
2021/11/29 03:16:05;;;;;;;13.43;7.00;;;1.30;95.40;;;;;;5011587;28;20789;-72
2021/11/29 03:18:36;;;;;;;14.43;7.30;;;1.30;95.40;;;;;;5010144;28;20418;-72
2021/11/29 03:21:03;;;;;;;11.20;7.40;;;1.20;95.40;;;;;;5010364;28;20257;-72
2021/11/29 03:23:30;;;;;;;12.50;6.13;;;1.20;95.40;;;;;;5011483;28;20410;-72
2021/11/29 03:25:57;;;;;;;13.07;7.00;;;1.20;95.40;;;;;;5010599;28;20765;-72
2021/11/29 03:28:23;;;;;;;23.23;7.23;;;1.20;95.50;;;;;;5011511;28;20421;-72
2021/11/29 03:30:48;;;;;;;13.27;6.57;;;1.20;95.40;;;;;;5011174;28;20472;-72
2021/11/29 03:33:14;;;;;;;12.60;7.20;;;1.20;95.60;;;;;;5009489;28;20271;-72
2021/11/29 03:35:41;;;;;;;11.70;7.53;;;1.20;95.50;;;;;;5011239;28;20417;-72
2021/11/29 03:38:07;;;;;;;13.80;6.60;;;1.20;95.60;;;;;;5011577;28;20628;-72
2021/11/29 03:40:33;;;;;;;8.40;5.97;;;1.20;95.50;;;;;;5010558;28;20882;-72
2021/11/29 03:42:59;;;;;;;13.53;7.13;;;1.20;95.60;;;;;;5009690;28;20548;-72
2021/11/29 03:45:25;;;;;;;11.80;6.33;;;1.20;95.50;;;;;;5011281;28;20572;-72
2021/11/29 03:47:51;;;;;;;10.67;7.50;;;1.20;95.50;;;;;;5011315;28;20412;-72
2021/11/29 03:50:17;;;;;;;8.93;6.83;;;1.20;95.60;;;;;;5011122;28;20689;-72
2021/11/29 03:52:42;;;;;;;8.87;6.33;;;1.20;95.60;;;;;;5010448;28;20449;-72
2021/11/29 03:55:08;;;;;;;13.37;6.93;;;1.20;95.60;;;;;;5009509;28;20448;-72
2021/11/29 03:57:34;;;;;;;9.90;6.40;;;1.10;95.60;;;;;;5009702;28;20171;-73
2021/11/29 04:00:00;;;;;;;8.80;6.13;;;1.20;95.70;;;;;;5010366;28;20433;-72
2021/11/29 04:02:26;;;;;;;9.53;6.33;;;1.20;95.70;;;;;;5009391;28;20273;-72
2021/11/29 04:04:52;;;;;;;7.97;7.17;;;1.20;95.60;;;;;;5009625;28;20977;-72
2021/11/29 04:07:17;;;;;;;10.40;6.17;;;1.20;95.50;;;;;;5010762;28;20416;-71
2021/11/29 04:09:43;;;;;;;12.43;6.80;;;1.20;95.50;;;;;;5010424;28;20437;-72
2021/11/29 04:12:09;;;;;;;10.30;5.93;;;1.20;95.60;;;;;;5009034;28;20179;-72
2021/11/29 04:14:35;;;;;;;8.07;6.23;;;1.20;95.50;;;;;;5010828;28;20608;-72
2021/11/29 04:17:00;;;;;;;10.60;6.50;;;1.20;95.40;;;;;;5009613;28;20285;-72
2021/11/29 04:19:26;;;;;;;10.20;6.00;;;1.20;95.30;;;;;;5009464;28;20178;-72
2021/11/29 04:21:52;;;;;;;9.20;5.90;;;1.10;95.60;;;;;;5008938;28;20194;-72
2021/11/29 04:24:18;;;;;;;9.37;5.87;;;1.10;95.40;;;;;;5009342;28;20424;-72
2021/11/29 04:26:51;;;;;;;14.73;7.60;;;1.10;95.40;;;;;;4993028;28;20930;-72
2021/11/29 04:29:19;;;;;;;20.10;6.17;;;1.10;95.40;;;;;;5010237;28;20453;-71
2021/11/29 04:31:46;;;;;;;8.37;5.37;;;1.10;95.60;;;;;;5009044;28;20512;-72
2021/11/29 04:34:12;;;;;;;11.73;5.20;;;1.00;95.60;;;;;;5009089;28;20472;-72
2021/11/29 04:36:38;;;;;;;7.23;5.70;;;1.10;95.70;;;;;;5010714;28;20468;-72
2021/11/29 04:39:06;;;;;;;5.00;4.60;;;1.00;95.80;;;;;;5010856;28;20903;-72
2021/11/29 04:41:32;;;;;;;7.33;4.60;;;1.10;95.90;;;;;;5010888;28;20211;-72
2021/11/29 04:43:57;;;;;;;8.90;4.47;;;1.00;95.80;;;;;;5010877;28;20759;-72
2021/11/29 04:46:23;;;;;;;9.63;4.70;;;1.00;95.80;;;;;;5010953;28;20216;-72
2021/11/29 04:48:49;;;;;;;8.60;4.77;;;1.00;95.90;;;;;;5013142;28;20163;-73
2021/11/29 04:51:14;;;;;;;9.70;4.60;;;1.10;96.10;;;;;;5014356;28;20560;-73
2021/11/29 04:53:41;;;;;;;7.30;3.73;;;1.20;96.20;;;;;;5013545;28;20259;-73
2021/11/29 04:56:07;;;;;;;7.10;5.07;;;1.30;96.10;;;;;;5012949;28;20168;-73
2021/11/29 04:58:33;;;;;;;8.40;3.63;;;1.40;96.00;;;;;;4996196;28;20493;-71
2021/11/29 05:00:59;;;;;;;8.00;4.07;;;1.40;95.90;;;;;;5012570;28;20468;-72
2021/11/29 05:03:25;;;;;;;4.70;3.40;;;1.50;95.80;;;;;;5013785;28;20497;-73
2021/11/29 05:05:50;;;;;;;8.07;3.63;;;1.60;95.60;;;;;;5013703;28;20314;-71
2021/11/29 05:08:16;;;;;;;9.33;4.27;;;1.70;95.40;;;;;;5014183;28;20202;-74
2021/11/29 05:10:42;;;;;;;4.23;3.47;;;1.70;95.40;;;;;;5013121;28;20285;-72
2021/11/29 05:13:08;;;;;;;4.10;3.67;;;1.80;95.30;;;;;;5013852;28;20171;-73
2021/11/29 05:15:35;;;;;;;6.73;3.67;;;1.80;95.30;;;;;;5013755;28;20225;-72
2021/11/29 05:18:01;;;;;;;7.30;3.87;;;1.80;95.10;;;;;;5012496;28;20600;-72
2021/11/29 05:20:27;;;;;;;12.50;4.63;;;1.90;95.00;;;;;;5013404;28;20430;-72
2021/11/29 05:22:52;;;;;;;9.40;4.03;;;1.80;95.20;;;;;;5013118;28;20203;-72
2021/11/29 05:25:19;;;;;;;5.43;3.83;;;1.80;94.80;;;;;;5013417;28;20402;-72
2021/11/29 05:27:46;;;;;;;5.60;3.50;;;1.80;95.00;;;;;;5012061;28;20545;-72
2021/11/29 05:30:12;;;;;;;10.23;3.97;;;1.80;95.00;;;;;;5011730;28;20465;-72
2021/11/29 05:32:38;;;;;;;7.93;4.53;;;1.90;95.00;;;;;;5012162;28;20504;-72
2021/11/29 05:35:05;;;;;;;11.90;5.47;;;1.90;95.40;;;;;;5011797;28;20524;-72
2021/11/29 05:37:31;;;;;;;9.67;5.50;;;1.90;95.00;;;;;;5013243;28;20221;-72
2021/11/29 05:39:56;;;;;;;8.23;5.37;;;2.00;95.00;;;;;;4995656;28;20860;-72
2021/11/29 05:42:22;;;;;;;16.50;5.63;;;2.00;94.80;;;;;;5013659;28;20480;-72
2021/11/29 05:44:50;;;;;;;6.10;4.73;;;2.00;94.80;;;;;;5011225;28;20195;-72
2021/11/29 05:47:20;;;;;;;8.83;5.50;;;2.00;94.80;;;;;;5011602;28;20206;-73
2021/11/29 05:49:46;;;;;;;10.60;5.93;;;2.00;94.80;;;;;;5013162;28;20681;-72
2021/11/29 05:52:12;;;;;;;7.83;5.00;;;2.00;94.90;;;;;;5015258;28;20418;-77
2021/11/29 05:54:38;;;;;;;7.03;5.73;;;2.00;94.80;;;;;;5012664;28;20425;-76
2021/11/29 05:57:03;;;;;;;13.43;6.57;;;2.10;94.90;;;;;;4996471;28;20608;-77
2021/11/29 05:59:29;;;;;;;10.93;6.40;;;2.10;94.90;;;;;;5010565;28;20446;-77
2021/11/29 06:01:55;;;;;;;8.63;5.93;;;2.10;94.80;;;;;;5012831;28;21063;-77
2021/11/29 06:04:21;;;;;;;7.80;5.70;;;2.10;94.80;;;;;;5014947;28;20190;-78
2021/11/29 06:06:47;;;;;;;10.33;6.27;;;2.10;94.60;;;;;;4994816;28;20178;-77
2021/11/29 06:09:12;;;;;;;10.43;6.97;;;2.10;94.60;;;;;;5013396;28;20558;-76
2021/11/29 06:11:38;;;;;;;10.70;6.40;;;2.10;94.70;;;;;;5011667;28;20229;-76
2021/11/29 06:14:05;;;;;;;15.17;8.20;;;2.10;94.90;;;;;;5013632;28;20231;-76
2021/11/29 06:16:30;;;;;;;8.63;6.40;;;2.10;94.90;;;;;;5014214;28;20472;-76
2021/11/29 06:18:56;;;;;;;9.00;6.80;;;2.10;94.90;;;;;;5013793;28;20784;-76
2021/11/29 06:21:22;;;;;;;12.60;6.87;;;2.20;94.80;;;;;;5009452;28;20203;-77
2021/11/29 06:23:47;;;;;;;11.67;7.00;;;2.20;94.90;;;;;;5010926;28;20163;-77
2021/11/29 06:26:13;;;;;;;14.70;6.87;;;2.20;95.00;;;;;;5013534;28;20167;-76
2021/11/29 06:28:39;;;;;;;12.57;9.23;;;2.30;94.90;;;;;;5012027;28;20777;-76
2021/11/29 06:31:05;;;;;;;9.13;6.50;;;2.30;94.80;;;;;;5011802;28;20290;-77
2021/11/29 06:33:30;;;;;;;11.53;8.03;;;2.30;94.80;;;;;;5012202;28;20171;-77
2021/11/29 06:35:58;;;;;;;13.50;8.70;;;2.30;94.60;;;;;;5013195;28;20687;-77
2021/11/29 06:38:26;;;;;;;11.10;7.03;;;2.30;94.70;;;;;;5014205;28;20167;-77
2021/11/29 06:40:55;;;;;;;16.87;9.47;;;2.30;94.70;;;;;;5018789;28;20476;-77
2021/11/29 06:43:23;;;;;;;16.50;9.00;;;2.30;94.80;;;;;;5021181;28;20445;-76
2021/11/29 06:45:50;;;;;;;12.83;8.20;;;2.30;94.80;;;;;;5017676;28;20430;-77
2021/11/29 06:48:16;;;;;;;17.87;8.10;;;2.30;94.80;;;;;;5016111;28;20414;-76
2021/11/29 06:50:42;;;;;;;14.13;8.57;;;2.30;94.70;;;;;;4996874;28;20527;-77
2021/11/29 06:53:09;;;;;;;13.60;8.37;;;2.30;94.80;;;;;;4993395;28;20461;-77
2021/11/29 06:55:35;;;;;;;12.80;8.80;;;2.40;94.80;;;;;;5010746;28;20179;-74
2021/11/29 06:58:02;;;;;;;11.57;9.17;;;2.40;94.80;;;;;;5011191;28;20426;-74
2021/11/29 07:00:28;;;;;;;14.80;9.30;;;2.40;94.70;;;;;;4990861;28;20486;-75
2021/11/29 07:02:54;;;;;;;14.70;8.63;;;2.40;94.70;;;;;;4995826;28;21032;-75
2021/11/29 07:05:22;;;;;;;11.90;8.50;;;2.40;94.60;;;;;;5012815;28;20438;-75
2021/11/29 07:07:50;;;;;;;15.87;8.93;;;2.40;94.60;;;;;;5012106;28;20410;-75
2021/11/29 07:10:17;;;;;;;16.77;10.47;;;2.40;94.60;;;;;;5009760;28;21029;-74
2021/11/29 07:12:44;;;;;;;15.50;9.37;;;2.50;94.70;;;;;;5011437;28;20428;-75
2021/11/29 07:15:11;;;;;;;17.10;10.37;;;2.50;94.60;;;;;;5010283;28;20460;-74
2021/11/29 07:17:36;;;;;;;21.77;12.90;;;2.40;94.50;;;;;;5011744;28;20433;-76
2021/11/29 07:20:04;;;;;;;15.97;10.37;;;2.40;94.50;;;;;;5011753;28;20425;-75
2021/11/29 07:22:30;;;;;;;17.23;10.23;;;2.40;94.50;;;;;;5011516;28;20450;-74
2021/11/29 07:25:00;;;;;;;17.60;9.60;;;2.30;94.60;;;;;;5011611;28;20469;-75
2021/11/29 07:27:26;;;;;;;16.73;9.43;;;2.30;94.60;;;;;;5012276;28;20333;-75
2021/11/29 07:29:52;;;;;;;24.97;12.17;;;2.30;94.70;;;;;;5034796;23;22049;-72
2021/11/29 07:32:22;;;;;;;18.27;10.87;;;2.40;94.70;;;;;;5022392;28;20175;-71
2021/11/29 07:34:48;;;;;;;20.90;11.73;;;2.40;94.60;;;;;;5012962;28;20262;-72
2021/11/29 07:37:19;;;;;;;18.43;12.60;;;2.40;94.60;;;;;;5012803;28;20402;-72
2021/11/29 07:39:46;;;;;;;19.50;9.83;;;2.50;94.60;;;;;;5012848;28;20398;-71
2021/11/29 07:42:12;;;;;;;15.20;8.40;;;2.60;94.50;;;;;;5012550;28;20449;-71
2021/11/29 07:44:39;;;;;;;12.90;8.00;;;2.60;94.20;;;;;;5012434;28;20469;-70
2021/11/29 07:47:06;;;;;;;12.63;7.47;;;2.60;94.00;;;;;;5013189;28;20410;-71
2021/11/29 07:49:32;;;;;;;13.60;7.83;;;2.60;93.80;;;;;;5012908;28;20448;-72
2021/11/29 07:51:58;;;;;;;18.03;8.67;;;2.60;93.80;;;;;;5012356;28;20409;-71
2021/11/29 07:54:24;;;;;;;13.40;8.33;;;2.60;94.00;;;;;;5012966;28;20908;-72
2021/11/29 07:56:50;;;;;;;14.30;8.33;;;2.70;94.10;;;;;;5014133;28;20414;-71
2021/11/29 07:59:16;;;;;;;15.50;9.00;;;2.70;94.00;;;;;;5013965;28;20644;-70
2021/11/29 08:01:42;;;;;;;11.97;7.37;;;2.70;93.90;;;;;;5012915;28;20388;-72
2021/11/29 08:04:07;;;;;;;18.97;9.50;;;2.70;93.70;;;;;;5013048;28;20167;-72
2021/11/29 08:06:33;;;;;;;17.60;8.50;;;2.80;93.80;;;;;;5013491;28;20418;-72
2021/11/29 08:08:59;;;;;;;14.03;8.53;;;2.80;93.70;;;;;;5013287;28;20301;-71
2021/11/29 08:11:25;;;;;;;16.53;8.97;;;2.80;93.50;;;;;;5012680;28;20195;-72
2021/11/29 08:13:50;;;;;;;22.73;11.60;;;2.90;93.50;;;;;;5011917;28;20190;-72
2021/11/29 08:16:16;;;;;;;31.37;13.83;;;2.90;93.50;;;;;;5011604;28;20171;-72
2021/11/29 08:18:43;;;;;;;25.50;11.97;;;3.00;93.50;;;;;;5013426;28;20768;-72
2021/11/29 08:21:09;;;;;;;18.57;10.00;;;3.00;93.50;;;;;;5014127;28;20532;-72
2021/11/29 08:23:35;;;;;;;19.90;10.40;;;3.10;93.50;;;;;;5016062;28;20501;-72
2021/11/29 08:26:01;;;;;;;35.37;12.63;;;3.20;93.20;;;;;;5015375;28;20958;-71
2021/11/29 08:28:28;;;;;;;30.73;12.60;;;3.30;92.80;;;;;;5017003;28;20409;-71
2021/11/29 08:30:53;;;;;;;38.53;14.33;;;3.30;93.10;;;;;;5015425;28;20477;-72
2021/11/29 08:33:19;;;;;;;36.03;12.97;;;3.20;92.80;;;;;;5015009;28;20872;-71
2021/11/29 08:35:46;;;;;;;37.80;13.57;;;3.30;92.90;;;;;;4999041;28;20262;-71
2021/11/29 08:38:17;;;;;;;25.07;10.27;;;3.30;92.90;;;;;;5016734;28;20725;-70
2021/11/29 08:40:43;;;;;;;17.70;8.07;;;3.30;92.90;;;;;;4999544;28;20449;-71
2021/11/29 08:43:16;;;;;;;18.60;8.63;;;3.40;92.90;;;;;;5016881;28;20970;-71
2021/11/29 08:45:43;;;;;;;25.17;11.03;;;3.40;92.70;;;;;;5015854;28;20444;-70
2021/11/29 08:48:11;;;;;;;27.37;10.73;;;3.40;92.80;;;;;;5015725;28;20419;-71
2021/11/29 08:50:39;;;;;;;40.03;13.97;;;3.40;92.90;;;;;;5019663;28;20426;-70
2021/11/29 08:53:08;;;;;;;32.87;13.80;;;3.50;93.00;;;;;;5016815;28;20500;-73
2021/11/29 08:55:35;;;;;;;30.07;11.70;;;3.70;92.50;;;;;;5016279;28;20417;-72
2021/11/29 08:58:03;;;;;;;25.90;11.63;;;3.80;92.40;;;;;;5014490;28;20436;-71
2021/11/29 09:00:29;;;;;;;40.17;16.00;;;4.00;92.30;;;;;;5015489;28;20434;-71
2021/11/29 09:02:55;;;;;;;31.80;14.07;;;4.20;91.80;;;;;;5014331;28;20438;-71
2021/11/29 09:05:21;;;;;;;30.17;11.60;;;4.40;91.40;;;;;;5015714;28;20908;-71
2021/11/29 09:07:47;;;;;;;37.97;13.87;;;4.50;90.60;;;;;;5016712;28;20167;-72
2021/11/29 09:10:14;;;;;;;29.30;12.50;;;4.60;90.50;;;;;;5014833;28;20428;-72
2021/11/29 09:12:39;;;;;;;18.07;10.30;;;4.70;90.10;;;;;;5016162;28;20269;-73
2021/11/29 09:15:10;;;;;;;18.57;8.27;;;4.80;89.40;;;;;;5016342;28;20908;-72
2021/11/29 09:17:36;;;;;;;12.70;8.07;;;4.70;88.80;;;;;;5016277;28;20530;-72
2021/11/29 09:20:05;;;;;;;24.50;11.57;;;4.70;89.60;;;;;;5016006;28;20836;-72
2021/11/29 09:22:30;;;;;;;17.23;9.30;;;4.90;89.40;;;;;;5015781;28;20607;-71
2021/11/29 09:24:59;;;;;;;16.20;9.87;;;5.00;89.60;;;;;;5015547;28;20481;-70
2021/11/29 09:27:26;;;;;;;21.40;12.40;;;5.10;88.10;;;;;;5015936;28;20222;-71
2021/11/29 09:29:52;;;;;;;18.93;9.00;;;5.10;87.40;;;;;;5014941;28;20974;-73
2021/11/29 09:32:19;;;;;;;12.53;7.27;;;5.00;87.00;;;;;;5013928;28;20433;-71
2021/11/29 09:34:47;;;;;;;30.47;15.43;;;5.00;87.80;;;;;;5014728;28;20199;-72
2021/11/29 09:37:13;;;;;;;21.93;12.57;;;4.90;87.30;;;;;;5015023;28;20425;-71
2021/11/29 09:39:39;;;;;;;19.33;10.10;;;4.80;87.50;;;;;;5015643;28;20410;-71
2021/11/29 09:42:05;;;;;;;17.37;9.47;;;4.70;87.40;;;;;;5013823;28;20484;-70
2021/11/29 09:44:31;;;;;;;15.10;8.63;;;4.60;88.20;;;;;;5015761;28;20421;-69
2021/11/29 09:46:57;;;;;;;14.40;7.80;;;4.50;89.10;;;;;;5014028;28;20414;-73
2021/11/29 09:49:23;;;;;;;13.40;7.23;;;4.50;89.10;;;;;;5015569;28;20178;-71
2021/11/29 09:51:49;;;;;;;11.20;7.70;;;4.40;88.50;;;;;;4999208;28;20477;-71
2021/11/29 09:54:15;;;;;;;12.23;5.97;;;4.30;89.70;;;;;;5015158;28;20414;-73
2021/11/29 09:56:42;;;;;;;10.10;5.13;;;4.30;89.50;;;;;;5016311;28;20175;-72
2021/11/29 09:59:08;;;;;;;8.77;6.43;;;4.30;89.50;;;;;;5018913;28;20410;-72
2021/11/29 10:01:34;;;;;;;11.17;6.20;;;4.30;90.00;;;;;;5012873;28;20460;-72
2021/11/29 10:04:01;;;;;;;6.33;4.60;;;4.30;90.40;;;;;;5015154;28;20414;-71
2021/11/29 10:06:26;;;;;;;9.13;5.33;;;4.30;90.40;;;;;;5014894;28;20446;-71
2021/11/29 10:08:53;;;;;;;8.47;5.20;;;4.20;90.40;;;;;;5014854;28;20434;-69
2021/11/29 10:11:20;;;;;;;11.53;4.87;;;4.20;90.70;;;;;;5016361;28;20237;-72
2021/11/29 10:13:53;;;;;;;10.80;5.13;;;4.10;91.10;;;;;;5014603;28;20418;-72
2021/11/29 10:16:30;;;;;;;9.07;5.63;;;4.00;91.40;;;;;;5015280;28;20915;-73
2021/11/29 10:18:56;;;;;;;11.30;5.60;;;3.90;91.90;;;;;;5016954;28;20405;-72
2021/11/29 10:21:22;;;;;;;12.93;5.37;;;3.90;92.30;;;;;;5016396;28;20776;-71
2021/11/29 10:23:51;;;;;;;15.43;5.60;;;3.90;92.60;;;;;;5015929;28;20464;-73
2021/11/29 10:26:17;;;;;;;23.57;11.70;;;4.00;92.80;;;;;;4997374;28;20198;-73
2021/11/29 10:29:19;;;;;;;8.87;5.10;;;4.00;92.80;;;;;;5014253;28;20946;-72
2021/11/29 10:31:51;;;;;;;6.17;4.50;;;4.10;92.80;;;;;;4952799;29;20306;-73
2021/11/29 10:34:29;;;;;;;10.47;6.20;;;4.20;93.00;;;;;;5004678;28;20457;-71
2021/11/29 10:37:01;;;;;;;11.63;5.87;;;4.30;93.20;;;;;;5012343;28;20414;-72
2021/11/29 10:39:37;;;;;;;9.60;5.90;;;4.30;92.70;;;;;;5015002;28;20904;-72
2021/11/29 10:42:10;;;;;;;10.70;5.13;;;4.40;92.80;;;;;;5014439;28;20449;-71
2021/11/29 10:44:38;;;;;;;11.53;6.57;;;4.30;92.80;;;;;;5014889;28;20407;-71
2021/11/29 10:47:07;;;;;;;16.27;5.67;;;4.30;92.80;;;;;;5014470;28;20468;-70
2021/11/29 10:49:39;;;;;;;21.13;8.80;;;4.30;93.30;;;;;;5012440;28;20904;-71
2021/11/29 10:52:07;;;;;;;21.17;9.10;;;4.30;92.90;;;;;;5014398;28;20461;-72
2021/11/29 10:54:34;;;;;;;16.37;7.93;;;4.30;92.90;;;;;;5014316;28;20625;-72
2021/11/29 10:57:02;;;;;;;20.90;8.10;;;4.30;92.80;;;;;;5013188;28;20414;-74
2021/11/29 10:59:30;;;;;;;19.43;7.50;;;4.20;92.90;;;;;;5013712;28;20425;-72
2021/11/29 11:01:59;;;;;;;16.07;7.40;;;4.20;93.00;;;;;;5014766;28;20461;-71
2021/11/29 11:04:30;;;;;;;16.10;7.60;;;4.20;93.20;;;;;;5013984;28;20525;-72
2021/11/29 11:07:04;;;;;;;16.97;9.17;;;4.30;93.30;;;;;;5014160;28;20460;-72
2021/11/29 11:09:37;;;;;;;12.33;6.57;;;4.30;93.60;;;;;;5016304;28;20458;-71
2021/11/29 11:12:15;;;;;;;13.20;8.00;;;4.30;93.30;;;;;;5022327;28;20483;-71
2021/11/29 11:14:42;;;;;;;47.93;22.97;;;4.30;93.50;;;;;;5013428;28;20461;-73
2021/11/29 11:17:10;;;;;;;20.83;9.83;;;4.40;93.60;;;;;;5013893;28;20409;-73
2021/11/29 11:20:13;;;;;;;9.87;5.67;;;4.40;93.60;;;;;;5013959;28;20421;-71
2021/11/29 11:22:46;;;;;;;11.20;5.40;;;4.40;93.50;;;;;;5012944;28;20511;-73
2021/11/29 11:25:15;;;;;;;12.87;7.50;;;4.40;93.60;;;;;;5012887;28;20472;-72
2021/11/29 11:27:43;;;;;;;18.47;9.20;;;4.40;93.50;;;;;;5013606;28;20429;-71
2021/11/29 11:30:10;;;;;;;9.37;4.67;;;4.40;93.60;;;;;;5013257;28;20445;-73
2021/11/29 11:32:38;;;;;;;12.43;6.23;;;4.30;93.50;;;;;;5011962;28;20867;-70
2021/11/29 11:35:29;;;;;;;13.60;6.70;;;4.30;93.50;;;;;;5013183;28;20769;-72
2021/11/29 11:37:58;;;;;;;8.20;5.50;;;4.30;93.70;;;;;;5012304;28;20852;-72
2021/11/29 11:40:33;;;;;;;8.17;5.70;;;4.20;93.80;;;;;;5012530;28;20851;-72
2021/11/29 11:43:01;;;;;;;15.17;5.37;;;4.20;93.90;;;;;;5012475;28;20475;-71
2021/11/29 11:45:29;;;;;;;16.03;6.90;;;4.20;94.10;;;;;;5013219;28;20409;-71
2021/11/29 11:47:58;;;;;;;7.43;5.40;;;4.20;94.00;;;;;;5013167;28;20441;-72
2021/11/29 11:50:27;;;;;;;16.17;6.17;;;4.30;94.10;;;;;;5012697;28;20422;-71
2021/11/29 11:52:54;;;;;;;9.50;6.50;;;4.30;94.10;;;;;;5011074;28;20418;-71
2021/11/29 11:55:24;;;;;;;21.43;9.67;;;4.40;94.10;;;;;;5012307;28;20410;-72
2021/11/29 11:57:52;;;;;;;7.40;5.00;;;4.40;94.10;;;;;;5012953;28;20430;-71
2021/11/29 12:00:39;;;;;;;10.60;5.13;;;4.40;94.10;;;;;;5013903;28;20436;-72
2021/11/29 12:03:15;;;;;;;11.13;4.90;;;4.40;94.20;;;;;;5015233;28;20448;-71
2021/11/29 12:06:07;;;;;;;8.20;4.80;;;4.40;94.00;;;;;;5016618;28;20464;-73
2021/11/29 12:08:49;;;;;;;9.03;5.67;;;4.40;94.10;;;;;;5014638;28;20406;-73
2021/11/29 12:11:26;;;;;;;8.20;5.03;;;4.40;94.10;;;;;;5013365;28;20432;-73
2021/11/29 12:14:03;;;;;;;12.57;6.50;;;4.40;94.30;;;;;;5012250;28;20402;-73
2021/11/29 12:16:34;;;;;;;48.27;24.03;;;4.40;94.20;;;;;;5012448;28;20409;-71
2021/11/29 12:19:01;;;;;;;17.77;9.57;;;4.40;94.20;;;;;;5012474;28;20448;-73
2021/11/29 12:21:37;;;;;;;14.30;7.87;;;4.50;94.40;;;;;;5010212;28;20418;-72
2021/11/29 12:24:09;;;;;;;13.50;8.27;;;4.50;94.30;;;;;;5010595;28;20448;-72
2021/11/29 12:27:05;;;;;;;16.47;8.37;;;4.60;94.50;;;;;;5011703;28;20724;-71
2021/11/29 12:29:31;;;;;;;31.07;17.80;;;4.60;94.40;;;;;;5008955;28;20787;-73
2021/11/29 12:32:03;;;;;;;13.53;9.07;;;4.70;94.30;;;;;;5011977;28;20449;-71
2021/11/29 12:34:43;;;;;;;9.03;7.13;;;4.80;94.30;;;;;;5012024;28;20174;-72
2021/11/29 12:37:09;;;;;;;6.23;5.63;;;4.80;93.70;;;;;;5011412;28;21035;-73
2021/11/29 12:40:11;;;;;;;6.10;5.10;;;4.90;94.00;;;;;;5010362;28;20410;-71
2021/11/29 12:42:37;;;;;;;6.97;5.03;;;4.90;94.10;;;;;;5005128;28;20935;-74
2021/11/29 12:45:20;;;;;;;5.50;4.60;;;5.00;94.40;;;;;;5011891;28;20416;-73
2021/11/29 12:47:48;;;;;;;11.40;6.57;;;5.20;95.00;;;;;;5011876;28;20591;-73
2021/11/29 12:50:44;;;;;;;7.93;5.20;;;5.20;93.60;;;;;;5011776;28;20973;-72
2021/11/29 12:53:11;;;;;;;7.67;5.20;;;5.30;94.00;;;;;;5012847;28;20685;-73
2021/11/29 12:55:38;;;;;;;8.80;5.63;;;5.40;93.40;;;;;;5012572;28;20492;-71
2021/11/29 12:58:07;;;;;;;9.20;4.70;;;5.30;93.10;;;;;;5011692;28;20420;-73
2021/11/29 13:00:38;;;;;;;5.60;3.90;;;5.30;93.20;;;;;;5010207;28;20518;-73